KLGC

Lagrange-Callaway Airport

Lagrange, Georgia, USA
METAR KLGC 180655Z AUTO 35005KT 7SM -DZ BKN008 BKN014 OVC031 17/17 A3015 RMK AO2 T01720170
Observed Flight Rules
Feb-18 @ 06:55 UTC (22 minutes ago) Instrument Flight Rules
Wind Visibility Clouds Conditions
350° at 5 knots 7 miles
  • Broken at 800' AGL
  • Broken at 1,400' AGL
  • Overcast at 3,100' AGL
  • Light Drizzle
Temperatures Readings
Current 17°C / 63°F
Dewpoint 17°C / 63°F
Humidity 100%
Altimeter 30.15" Hg
Pressure 1021 hPa
Elevation 211
METAR KLGC 180655Z AUTO 35005KT 7SM -DZ BKN008 BKN014 OVC031 17/17 A3015 RMK AO2 T01720170
Observed Flight Rules
Feb-18 @ 06:55 UTC
(22 minutes ago)
IFR
Wind Visibility
350° at 5 knots 7 miles
Clouds
  • Broken at 800' AGL
  • Broken at 1,400' AGL
  • Overcast at 3,100' AGL
Conditions
  • Light Drizzle
Temperature Dewpoint
17°C / 63°F 17°C / 63°F
Humidity Altimeter Pressure
100% 30.15" Hg 1021 hPa